Time;durP1;ratioP1;P1;durP2;ratioP2;P2;SDS_P1;SDS_P2;PMS_P1;PMS_P2;Temp;Humidity;BMP_temperature;BMP_pressure;BME280_temperature;BME280_humidity;BME280_pressure;Samples;Min_cycle;Max_cycle;Signal;HPM_P1;HPM_P2
2021/12/18 00:00:48;;;;;;;3.78;0.85;;;7.20;99.90;;;;;;4880176;29;20493;-84
2021/12/18 00:03:14;;;;;;;4.05;1.50;;;7.10;99.90;;;;;;4863386;29;20060;-84
2021/12/18 00:05:41;;;;;;;4.65;1.45;;;7.10;99.90;;;;;;4879920;29;20044;-85
2021/12/18 00:08:06;;;;;;;6.80;1.42;;;7.00;99.90;;;;;;4863327;29;20088;-85
2021/12/18 00:10:33;;;;;;;3.92;0.75;;;7.00;99.90;;;;;;4863322;29;20113;-85
2021/12/18 00:13:00;;;;;;;3.08;0.68;;;7.00;99.90;;;;;;4863366;29;20100;-85
2021/12/18 00:15:27;;;;;;;2.97;1.05;;;7.00;99.90;;;;;;4863605;29;20049;-84
2021/12/18 00:17:53;;;;;;;3.47;0.40;;;7.00;99.90;;;;;;4863559;29;20481;-86
2021/12/18 00:20:19;;;;;;;5.25;0.40;;;7.00;99.90;;;;;;4863097;29;20045;-85
2021/12/18 00:22:46;;;;;;;8.40;0.80;;;7.00;99.90;;;;;;4863284;29;20053;-84
2021/12/18 00:25:13;;;;;;;4.20;0.57;;;6.90;99.90;;;;;;4863073;29;20134;-84
2021/12/18 00:27:38;;;;;;;3.22;0.70;;;6.90;99.90;;;;;;4863539;29;20128;-84
2021/12/18 00:30:06;;;;;;;9.55;1.30;;;6.90;99.90;;;;;;4879918;29;20132;-84
2021/12/18 00:32:32;;;;;;;4.65;1.13;;;6.80;99.90;;;;;;4863249;29;20067;-84
2021/12/18 00:34:58;;;;;;;4.03;0.57;;;6.80;99.90;;;;;;4879887;29;20037;-84
2021/12/18 00:37:24;;;;;;;8.18;0.70;;;6.80;99.90;;;;;;4863123;29;20140;-84
2021/12/18 00:39:55;;;;;;;12.93;0.68;;;6.80;99.90;;;;;;4863161;29;20074;-85
2021/12/18 00:42:46;;;;;;;9.70;1.00;;;6.80;99.90;;;;;;4879588;29;20064;-84
2021/12/18 00:45:17;;;;;;;5.68;0.30;;;6.90;99.90;;;;;;4863244;29;20135;-84
2021/12/18 00:47:44;;;;;;;6.82;0.50;;;6.80;99.90;;;;;;4879717;29;20037;-84
2021/12/18 00:50:20;;;;;;;8.77;0.52;;;6.80;99.90;;;;;;4879640;29;20060;-85
2021/12/18 00:52:47;;;;;;;2.85;0.45;;;6.80;99.90;;;;;;4883278;29;20036;-85
2021/12/18 00:55:20;;;;;;;7.50;0.63;;;6.80;99.90;;;;;;4883397;29;20051;-85
2021/12/18 00:57:46;;;;;;;9.07;0.65;;;6.80;99.90;;;;;;4866521;29;20045;-85
2021/12/18 01:00:14;;;;;;;4.97;0.93;;;6.90;99.90;;;;;;4866459;29;20083;-85
2021/12/18 01:02:43;;;;;;;2.92;0.70;;;6.90;99.90;;;;;;4866667;29;20435;-85
2021/12/18 01:05:10;;;;;;;32.05;1.50;;;6.90;99.90;;;;;;4866629;29;20125;-84
2021/12/18 01:07:37;;;;;;;5.20;0.98;;;6.90;99.90;;;;;;4863281;29;20085;-85
2021/12/18 01:12:51;;;;;;;15.68;1.00;;;7.00;99.90;;;;;;4864491;29;20125;-85
2021/12/18 01:15:24;;;;;;;4.28;0.63;;;7.00;99.90;;;;;;4863320;29;20049;-86
2021/12/18 01:23:22;;;;;;;7.50;0.73;;;6.90;99.90;;;;;;4864096;29;20514;-85
2021/12/18 01:25:48;;;;;;;4.50;0.88;;;7.00;99.90;;;;;;4864258;29;20493;-84
2021/12/18 01:28:14;;;;;;;4.63;1.00;;;6.90;99.90;;;;;;4863057;29;20045;-84
2021/12/18 01:30:40;;;;;;;3.63;0.80;;;6.90;99.90;;;;;;4863216;29;20064;-85
2021/12/18 01:33:06;;;;;;;9.82;1.40;;;6.90;99.90;;;;;;4864009;29;20045;-84
2021/12/18 01:35:32;;;;;;;14.55;1.33;;;6.90;99.90;;;;;;4863057;29;20130;-85
2021/12/18 01:37:58;;;;;;;7.22;1.00;;;6.90;99.90;;;;;;4862790;29;20049;-85
2021/12/18 01:40:24;;;;;;;6.32;1.35;;;6.80;99.90;;;;;;4862820;29;20038;-84
2021/12/18 01:51:22;;;;;;;8.85;1.60;;;6.90;99.90;;;;;;4862726;29;20056;-85
2021/12/18 01:53:55;;;;;;;8.77;1.50;;;6.90;99.90;;;;;;4862460;29;20053;-87
2021/12/18 01:56:21;;;;;;;8.05;1.48;;;7.00;99.90;;;;;;4862547;29;20102;-85
2021/12/18 01:58:47;;;;;;;16.02;1.67;;;7.00;99.90;;;;;;4864023;29;20089;-85
2021/12/18 02:01:15;;;;;;;7.55;1.55;;;7.00;99.90;;;;;;4863908;29;20041;-87
2021/12/18 02:03:41;;;;;;;9.85;1.80;;;7.00;99.90;;;;;;4863488;29;20165;-84
2021/12/18 02:06:07;;;;;;;8.75;2.20;;;7.00;99.90;;;;;;4867842;29;20493;-84
2021/12/18 02:08:35;;;;;;;9.43;2.10;;;7.00;99.90;;;;;;4865271;29;20131;-84
2021/12/18 02:11:12;;;;;;;12.13;1.90;;;7.00;99.90;;;;;;4865191;29;20510;-84
2021/12/18 02:14:22;;;;;;;12.73;3.03;;;7.00;99.90;;;;;;4865339;29;20413;-84
2021/12/18 02:21:57;;;;;;;5.95;1.80;;;7.10;99.90;;;;;;4881956;29;20068;-84
2021/12/18 02:24:26;;;;;;;7.68;1.73;;;7.10;99.90;;;;;;4865099;29;20182;-83
2021/12/18 02:26:52;;;;;;;9.23;2.33;;;7.10;99.90;;;;;;4865384;29;20063;-84
2021/12/18 02:29:18;;;;;;;6.50;1.90;;;7.10;99.90;;;;;;4865068;29;20053;-84
2021/12/18 02:31:45;;;;;;;10.50;3.20;;;7.20;99.90;;;;;;4881794;29;20037;-84
2021/12/18 02:34:18;;;;;;;9.18;2.42;;;7.10;99.90;;;;;;4881718;29;20051;-84
2021/12/18 02:36:47;;;;;;;8.98;2.55;;;7.10;99.90;;;;;;4865009;29;20060;-84
2021/12/18 02:39:26;;;;;;;10.88;2.42;;;7.20;99.90;;;;;;4865199;29;20404;-84
2021/12/18 02:44:39;;;;;;;7.35;2.10;;;7.20;99.90;;;;;;4864650;29;20135;-84
2021/12/18 02:47:06;;;;;;;4.32;1.58;;;7.30;99.90;;;;;;4881341;29;20504;-83
2021/12/18 02:49:32;;;;;;;5.53;1.85;;;7.30;99.90;;;;;;4864738;29;20097;-84
2021/12/18 02:51:58;;;;;;;8.50;2.22;;;7.30;99.90;;;;;;4864594;29;20049;-84
2021/12/18 02:54:23;;;;;;;6.07;2.80;;;7.30;99.90;;;;;;4864916;29;20051;-83
2021/12/18 02:56:49;;;;;;;6.60;2.72;;;7.30;99.90;;;;;;4864402;29;20387;-83
2021/12/18 02:59:16;;;;;;;8.48;3.35;;;7.30;99.90;;;;;;4864736;29;20060;-84
2021/12/18 03:01:42;;;;;;;7.15;2.90;;;7.30;99.90;;;;;;4864441;29;20057;-83
2021/12/18 03:04:18;;;;;;;9.57;4.28;;;7.30;99.90;;;;;;4864454;29;20127;-84
2021/12/18 03:06:48;;;;;;;12.13;3.60;;;7.40;99.90;;;;;;4864368;29;20128;-84
2021/12/18 03:09:49;;;;;;;8.65;3.13;;;7.30;99.90;;;;;;4864539;29;20056;-83
2021/12/18 03:25:26;;;;;;;12.25;4.40;;;7.30;99.90;;;;;;4880746;29;20139;-83
2021/12/18 03:27:52;;;;;;;11.80;4.10;;;7.30;99.90;;;;;;4863821;29;20489;-83
2021/12/18 03:30:19;;;;;;;15.55;5.20;;;7.30;99.90;;;;;;4864127;29;20113;-83
2021/12/18 03:32:45;;;;;;;12.10;4.35;;;7.30;99.90;;;;;;4863905;29;20059;-83
2021/12/18 03:35:12;;;;;;;10.73;3.50;;;7.30;99.90;;;;;;4863902;29;20053;-83
2021/12/18 03:37:38;;;;;;;7.78;1.95;;;7.30;99.90;;;;;;4864102;29;20057;-84
2021/12/18 03:40:06;;;;;;;6.95;2.50;;;7.30;99.90;;;;;;4863679;29;20045;-83
2021/12/18 03:42:32;;;;;;;4.35;1.63;;;7.30;99.90;;;;;;4863588;29;20048;-83
2021/12/18 03:44:58;;;;;;;5.38;1.67;;;7.30;99.90;;;;;;4863661;29;20485;-83
2021/12/18 03:47:25;;;;;;;4.85;1.83;;;7.30;99.90;;;;;;4863732;29;20060;-84
2021/12/18 03:49:51;;;;;;;6.25;2.35;;;7.30;99.90;;;;;;4863708;29;20055;-83
2021/12/18 03:52:17;;;;;;;7.68;2.10;;;7.30;99.90;;;;;;4880282;29;20132;-83
2021/12/18 03:54:43;;;;;;;6.93;2.50;;;7.30;99.90;;;;;;4880357;29;20049;-83
2021/12/18 03:57:08;;;;;;;10.77;2.80;;;7.30;99.90;;;;;;4863703;29;20122;-83
2021/12/18 03:59:34;;;;;;;10.13;3.30;;;7.30;99.90;;;;;;4880146;29;20055;-83
2021/12/18 04:02:00;;;;;;;10.40;2.85;;;7.30;99.90;;;;;;4863759;29;20118;-84
2021/12/18 04:04:26;;;;;;;11.75;3.03;;;7.30;99.90;;;;;;4863502;29;20056;-84
2021/12/18 04:06:51;;;;;;;13.43;3.38;;;7.30;99.90;;;;;;4863044;29;20455;-84
2021/12/18 04:09:17;;;;;;;10.85;2.75;;;7.30;99.90;;;;;;4879967;29;20080;-83
2021/12/18 04:11:43;;;;;;;11.40;2.83;;;7.30;99.90;;;;;;4863473;29;20433;-83
2021/12/18 04:14:11;;;;;;;8.35;2.25;;;7.30;99.90;;;;;;4863347;29;20044;-83
2021/12/18 04:16:37;;;;;;;10.45;2.83;;;7.30;99.90;;;;;;4863340;29;20053;-83
2021/12/18 04:19:04;;;;;;;9.85;2.80;;;7.30;99.90;;;;;;4863282;29;20056;-83
2021/12/18 04:21:31;;;;;;;9.05;2.47;;;7.30;99.90;;;;;;4879902;29;20049;-83
2021/12/18 04:23:57;;;;;;;13.50;2.80;;;7.40;99.90;;;;;;4862996;29;20412;-84
2021/12/18 04:26:23;;;;;;;13.18;3.10;;;7.40;99.90;;;;;;4879506;29;20045;-83
2021/12/18 04:28:48;;;;;;;22.23;3.25;;;7.40;99.90;;;;;;4863121;29;20052;-84
2021/12/18 04:31:14;;;;;;;14.15;2.85;;;7.40;99.90;;;;;;4879752;29;20045;-84
2021/12/18 04:33:40;;;;;;;9.57;2.60;;;7.40;99.90;;;;;;4863434;29;20053;-83
2021/12/18 04:36:07;;;;;;;12.73;2.78;;;7.30;99.90;;;;;;4863161;29;20425;-84
2021/12/18 04:38:33;;;;;;;18.92;3.22;;;7.40;99.90;;;;;;4879689;29;20053;-84
2021/12/18 04:41:00;;;;;;;12.00;1.85;;;7.40;99.90;;;;;;4863007;29;20085;-84
2021/12/18 04:43:26;;;;;;;11.48;2.83;;;7.30;99.90;;;;;;4862952;29;20086;-83
2021/12/18 04:45:51;;;;;;;7.05;1.60;;;7.40;99.90;;;;;;4863014;29;20049;-83
2021/12/18 04:48:17;;;;;;;6.95;1.67;;;7.30;99.90;;;;;;4863068;29;20055;-83
2021/12/18 04:50:43;;;;;;;10.10;2.03;;;7.40;99.90;;;;;;4863307;29;20045;-83
2021/12/18 04:53:10;;;;;;;9.68;2.08;;;7.40;99.90;;;;;;4862841;29;20053;-83
2021/12/18 04:55:36;;;;;;;7.25;2.17;;;7.40;99.90;;;;;;4863075;29;20057;-83
2021/12/18 04:58:02;;;;;;;7.55;1.58;;;7.40;99.90;;;;;;4862942;29;20451;-83
2021/12/18 05:00:37;;;;;;;13.38;2.42;;;7.40;99.90;;;;;;4862883;29;20049;-83
2021/12/18 05:03:05;;;;;;;11.82;2.10;;;7.50;99.90;;;;;;4862812;29;20128;-83
2021/12/18 05:05:32;;;;;;;15.55;3.03;;;7.50;99.90;;;;;;4863239;29;20061;-83
2021/12/18 05:07:58;;;;;;;9.50;2.17;;;7.50;99.90;;;;;;4862573;29;20060;-83
2021/12/18 05:10:23;;;;;;;10.55;2.30;;;7.50;99.90;;;;;;4879595;29;20407;-83
2021/12/18 05:12:49;;;;;;;9.95;2.10;;;7.50;99.90;;;;;;4863069;29;20441;-83
2021/12/18 05:15:15;;;;;;;8.65;2.45;;;7.60;99.90;;;;;;4863072;29;20155;-83
2021/12/18 05:17:40;;;;;;;9.00;2.60;;;7.60;99.90;;;;;;4862890;29;20057;-83
2021/12/18 05:20:07;;;;;;;13.60;2.78;;;7.60;99.90;;;;;;4862814;29;20060;-83
2021/12/18 05:22:33;;;;;;;11.98;2.60;;;7.70;99.90;;;;;;4862773;29;20049;-83
2021/12/18 05:24:59;;;;;;;12.57;2.67;;;7.60;99.90;;;;;;4862666;29;20053;-83
2021/12/18 05:27:25;;;;;;;13.38;2.80;;;7.50;99.90;;;;;;4862687;29;20048;-83
2021/12/18 05:29:50;;;;;;;11.40;4.13;;;7.60;99.90;;;;;;4862945;29;20052;-83
2021/12/18 05:32:16;;;;;;;9.82;2.70;;;7.60;99.90;;;;;;4862929;29;20459;-83
2021/12/18 05:34:42;;;;;;;13.10;3.00;;;7.60;99.90;;;;;;4862750;29;20128;-83
2021/12/18 05:37:31;;;;;;;12.52;2.88;;;7.60;99.90;;;;;;4862805;29;20132;-83
2021/12/18 05:39:58;;;;;;;15.75;3.50;;;7.70;99.90;;;;;;4866085;29;20049;-83
2021/12/18 05:42:24;;;;;;;15.95;3.80;;;7.70;99.90;;;;;;4865898;29;20053;-83
2021/12/18 05:44:50;;;;;;;20.10;3.88;;;7.70;99.90;;;;;;4865808;29;20060;-83
2021/12/18 05:47:16;;;;;;;22.35;4.88;;;7.70;99.90;;;;;;4865935;29;20092;-83
2021/12/18 05:49:41;;;;;;;23.13;3.78;;;7.70;99.90;;;;;;4865893;29;20056;-83
2021/12/18 05:52:07;;;;;;;15.13;3.30;;;7.60;99.90;;;;;;4865633;29;20172;-83
2021/12/18 05:54:34;;;;;;;16.65;2.85;;;7.70;99.90;;;;;;4865944;29;20093;-83
2021/12/18 05:57:05;;;;;;;10.52;2.58;;;7.80;99.90;;;;;;4865880;29;20063;-83
2021/12/18 05:59:31;;;;;;;10.48;2.15;;;7.90;99.90;;;;;;4865915;29;20057;-83
2021/12/18 06:01:57;;;;;;;13.10;2.30;;;7.90;99.90;;;;;;4865442;29;20100;-83
2021/12/18 06:04:23;;;;;;;7.03;1.88;;;7.80;99.90;;;;;;4865379;29;20061;-83
2021/12/18 06:06:48;;;;;;;7.05;1.67;;;7.90;99.90;;;;;;4865341;29;20132;-83
2021/12/18 06:09:14;;;;;;;6.15;1.00;;;7.90;99.90;;;;;;4882106;29;20130;-83
2021/12/18 06:11:41;;;;;;;6.38;1.27;;;8.00;99.90;;;;;;4865420;29;20045;-83
2021/12/18 06:14:07;;;;;;;8.00;2.45;;;8.00;99.90;;;;;;4865621;29;20057;-83
2021/12/18 06:16:33;;;;;;;9.80;1.80;;;7.90;99.90;;;;;;4865160;29;20560;-83
2021/12/18 06:18:59;;;;;;;6.40;1.58;;;8.00;99.90;;;;;;4865441;29;20171;-83
2021/12/18 06:21:24;;;;;;;7.30;2.30;;;7.90;99.90;;;;;;4865189;29;20482;-83
2021/12/18 06:23:53;;;;;;;7.90;1.50;;;7.90;99.90;;;;;;4865120;29;20048;-83
2021/12/18 06:26:20;;;;;;;4.57;1.40;;;7.90;99.90;;;;;;4864952;29;20049;-83
2021/12/18 06:28:46;;;;;;;10.27;1.67;;;8.00;99.90;;;;;;4865093;29;20394;-83
2021/12/18 06:31:11;;;;;;;5.65;1.38;;;8.00;99.90;;;;;;4865192;29;20524;-83
2021/12/18 06:33:37;;;;;;;6.40;2.05;;;8.00;99.90;;;;;;4864856;29;20128;-83
2021/12/18 06:36:04;;;;;;;11.00;1.90;;;8.00;99.90;;;;;;4864897;29;20565;-83
2021/12/18 06:38:29;;;;;;;5.82;1.83;;;8.00;99.90;;;;;;4864954;29;20049;-83
2021/12/18 06:40:55;;;;;;;10.07;1.88;;;8.00;99.90;;;;;;4864899;29;20145;-83
2021/12/18 06:43:21;;;;;;;5.40;1.40;;;8.00;99.90;;;;;;4864899;29;20072;-83
2021/12/18 06:45:47;;;;;;;6.85;1.63;;;8.00;99.90;;;;;;4864735;29;20093;-83
2021/12/18 06:48:12;;;;;;;10.10;1.70;;;8.00;99.90;;;;;;4864674;29;20049;-83
2021/12/18 06:50:38;;;;;;;7.88;1.70;;;8.10;99.90;;;;;;4864524;29;20545;-83
2021/12/18 06:53:05;;;;;;;9.55;1.85;;;8.10;99.90;;;;;;4864686;29;20500;-83
2021/12/18 06:55:31;;;;;;;7.55;1.77;;;8.10;99.90;;;;;;4881372;29;20059;-83
2021/12/18 06:57:57;;;;;;;7.57;1.83;;;8.10;99.90;;;;;;4864595;29;20052;-83
2021/12/18 07:00:24;;;;;;;7.80;1.92;;;8.10;99.90;;;;;;4864430;29;20049;-83
2021/12/18 07:02:50;;;;;;;7.22;1.90;;;8.10;99.90;;;;;;4864260;29;20061;-83
2021/12/18 07:05:16;;;;;;;11.88;3.92;;;8.10;99.90;;;;;;4864375;29;20053;-83
2021/12/18 07:07:42;;;;;;;6.68;1.30;;;8.20;99.90;;;;;;4861127;29;20140;-83
2021/12/18 07:10:10;;;;;;;5.93;1.35;;;8.20;99.90;;;;;;4862504;29;20064;-83
2021/12/18 07:12:36;;;;;;;8.80;1.60;;;8.10;99.90;;;;;;4861293;29;20121;-83
2021/12/18 07:15:03;;;;;;;11.18;2.60;;;8.10;99.90;;;;;;4861351;29;20443;-83
2021/12/18 07:17:29;;;;;;;9.00;1.65;;;8.10;99.90;;;;;;4861086;29;20066;-83
2021/12/18 07:19:55;;;;;;;10.77;3.30;;;8.10;99.90;;;;;;4861332;29;20058;-83
2021/12/18 07:22:20;;;;;;;8.25;1.52;;;8.10;99.90;;;;;;4862334;29;20128;-83
2021/12/18 07:24:46;;;;;;;7.70;2.20;;;8.10;99.90;;;;;;4860902;29;20145;-83
2021/12/18 07:27:12;;;;;;;12.98;2.13;;;8.00;99.90;;;;;;4861111;29;20049;-83
2021/12/18 07:29:37;;;;;;;7.60;1.88;;;8.10;99.90;;;;;;4860857;29;20409;-83
2021/12/18 07:32:03;;;;;;;13.50;3.20;;;8.10;99.90;;;;;;4860817;29;20045;-83
2021/12/18 07:34:29;;;;;;;8.80;1.92;;;8.10;99.90;;;;;;4862130;29;20041;-83
2021/12/18 07:36:55;;;;;;;9.07;1.75;;;8.10;99.90;;;;;;4860851;29;20106;-83
2021/12/18 07:39:20;;;;;;;8.27;1.90;;;8.20;99.90;;;;;;4860800;29;20082;-83
2021/12/18 07:41:46;;;;;;;9.75;2.50;;;8.20;99.90;;;;;;4860603;29;20141;-83
2021/12/18 07:44:12;;;;;;;9.73;1.98;;;8.20;99.90;;;;;;4860347;29;20145;-83
2021/12/18 07:46:39;;;;;;;12.88;2.40;;;8.20;99.90;;;;;;4860296;29;20049;-83
2021/12/18 07:49:07;;;;;;;11.70;2.30;;;8.30;99.90;;;;;;4860451;29;20049;-83
2021/12/18 07:51:33;;;;;;;10.20;2.58;;;8.20;99.90;;;;;;4861660;29;20133;-84
2021/12/18 07:53:59;;;;;;;10.30;2.60;;;8.20;99.90;;;;;;4860295;29;20508;-83
2021/12/18 07:56:25;;;;;;;11.35;2.72;;;8.20;99.90;;;;;;4861300;29;20059;-84
2021/12/18 07:58:52;;;;;;;9.70;2.60;;;8.20;99.90;;;;;;4860085;29;20049;-84
2021/12/18 08:01:18;;;;;;;9.07;2.53;;;8.20;99.90;;;;;;4859319;29;20071;-83
2021/12/18 08:03:43;;;;;;;13.63;2.65;;;8.20;99.90;;;;;;4859780;29;20077;-83
2021/12/18 08:06:10;;;;;;;10.65;2.80;;;8.10;99.90;;;;;;4864812;29;20457;-84
2021/12/18 08:08:36;;;;;;;9.93;2.95;;;8.10;99.90;;;;;;4863534;29;20409;-83
2021/12/18 08:11:02;;;;;;;6.45;2.20;;;8.10;99.90;;;;;;4863170;29;20437;-84
2021/12/18 08:13:27;;;;;;;8.68;1.80;;;8.10;99.90;;;;;;4863478;29;20056;-84
2021/12/18 08:15:53;;;;;;;7.72;2.28;;;8.10;99.90;;;;;;4863371;29;20383;-84
2021/12/18 08:18:19;;;;;;;7.07;1.67;;;8.20;99.90;;;;;;4863306;29;20128;-83
2021/12/18 08:20:45;;;;;;;6.25;1.88;;;8.20;99.90;;;;;;4879668;29;20470;-83
2021/12/18 08:23:11;;;;;;;12.00;1.98;;;8.10;99.90;;;;;;4863055;29;20064;-84
2021/12/18 08:25:37;;;;;;;9.32;1.30;;;8.20;99.90;;;;;;4879685;29;20044;-83
2021/12/18 08:28:04;;;;;;;4.43;1.25;;;8.20;99.90;;;;;;4863202;29;20080;-84
2021/12/18 08:30:32;;;;;;;6.65;1.60;;;8.20;99.90;;;;;;4863198;29;20061;-83
2021/12/18 08:32:58;;;;;;;7.07;1.27;;;8.20;99.90;;;;;;4863292;29;20064;-82
2021/12/18 08:35:28;;;;;;;6.55;0.93;;;8.20;99.90;;;;;;4879593;29;20056;-82
2021/12/18 08:37:56;;;;;;;6.03;1.42;;;8.30;99.90;;;;;;4862991;29;20060;-84
2021/12/18 08:40:22;;;;;;;9.90;1.40;;;8.30;99.90;;;;;;4853184;29;20057;-82
2021/12/18 08:42:48;;;;;;;4.93;1.23;;;8.20;99.90;;;;;;4844122;29;20047;-81
2021/12/18 08:45:14;;;;;;;6.45;2.42;;;8.20;99.90;;;;;;4844209;29;20053;-82
2021/12/18 08:47:41;;;;;;;9.20;2.47;;;8.20;99.90;;;;;;4844156;29;20046;-82
2021/12/18 08:50:09;;;;;;;6.55;1.52;;;8.20;99.90;;;;;;4844209;29;20053;-82
2021/12/18 08:52:35;;;;;;;7.50;2.38;;;8.10;99.90;;;;;;4844113;29;20050;-82
2021/12/18 08:55:01;;;;;;;6.55;2.00;;;8.10;99.90;;;;;;4844048;29;20054;-82
2021/12/18 08:57:27;;;;;;;6.57;2.30;;;8.10;99.90;;;;;;4844366;29;20053;-82
2021/12/18 08:59:53;;;;;;;8.98;2.95;;;8.10;99.90;;;;;;4860722;29;20533;-82
2021/12/18 09:02:18;;;;;;;9.70;3.20;;;8.10;99.90;;;;;;4844361;29;20163;-82
2021/12/18 09:04:44;;;;;;;16.10;2.88;;;8.10;99.90;;;;;;4843875;29;20418;-82
2021/12/18 09:07:10;;;;;;;5.93;2.63;;;8.10;99.90;;;;;;4843912;29;20128;-82
2021/12/18 09:09:38;;;;;;;6.18;2.25;;;8.10;99.90;;;;;;4860893;29;20522;-82
2021/12/18 09:12:04;;;;;;;7.35;2.08;;;8.10;99.90;;;;;;4844907;29;20057;-82
2021/12/18 09:14:30;;;;;;;7.75;2.08;;;8.10;99.90;;;;;;4864411;29;20042;-82
2021/12/18 09:16:56;;;;;;;6.88;1.58;;;8.10;99.90;;;;;;4847652;29;20077;-84
2021/12/18 09:19:21;;;;;;;9.55;2.25;;;8.10;99.90;;;;;;4847652;29;20050;-83
2021/12/18 09:21:47;;;;;;;13.23;2.30;;;8.10;99.90;;;;;;4847656;29;20053;-83
2021/12/18 09:24:12;;;;;;;10.02;2.08;;;8.10;99.90;;;;;;4847238;29;20504;-82
2021/12/18 09:26:38;;;;;;;10.35;1.95;;;8.10;99.90;;;;;;4864098;29;20077;-82
2021/12/18 09:29:04;;;;;;;8.05;2.45;;;8.10;99.90;;;;;;4847531;29;20109;-82
2021/12/18 09:31:30;;;;;;;13.38;3.00;;;8.10;99.90;;;;;;4847081;29;20504;-82
2021/12/18 09:33:55;;;;;;;14.75;2.72;;;8.20;99.90;;;;;;4847416;29;20050;-83
2021/12/18 09:36:21;;;;;;;17.40;2.92;;;8.20;99.90;;;;;;4863925;29;20042;-82
2021/12/18 09:38:47;;;;;;;10.85;3.35;;;8.20;99.90;;;;;;4847254;29;20468;-83
2021/12/18 09:41:13;;;;;;;7.88;2.20;;;8.20;99.90;;;;;;4863566;29;20553;-84
2021/12/18 09:43:39;;;;;;;8.70;2.40;;;8.20;99.90;;;;;;4846927;29;20455;-82
2021/12/18 09:46:13;;;;;;;9.52;2.13;;;8.20;99.90;;;;;;4848210;29;20136;-82
2021/12/18 09:48:41;;;;;;;7.28;1.70;;;8.30;99.90;;;;;;4863524;29;20065;-82
2021/12/18 09:51:13;;;;;;;8.57;2.70;;;8.20;99.90;;;;;;4863818;29;20045;-82
2021/12/18 09:53:40;;;;;;;8.52;2.22;;;8.30;99.90;;;;;;4846826;29;20045;-83
2021/12/18 09:56:07;;;;;;;9.82;2.47;;;8.20;99.90;;;;;;4846841;29;20054;-82
2021/12/18 09:58:33;;;;;;;9.82;2.00;;;8.30;99.90;;;;;;4847017;29;20477;-82
2021/12/18 10:00:59;;;;;;;10.27;2.47;;;8.30;99.90;;;;;;4846890;29;20109;-82
2021/12/18 10:03:48;;;;;;;10.80;2.88;;;8.40;99.90;;;;;;4863095;29;20057;-83
2021/12/18 10:06:45;;;;;;;8.75;2.17;;;8.30;99.90;;;;;;4863169;29;20057;-83
2021/12/18 10:09:30;;;;;;;8.73;2.45;;;8.30;99.90;;;;;;4846511;29;20072;-83
2021/12/18 10:12:12;;;;;;;6.28;2.17;;;8.30;99.90;;;;;;4846804;29;20061;-82
2021/12/18 10:14:57;;;;;;;11.48;2.35;;;8.40;99.90;;;;;;4846830;29;20060;-82
2021/12/18 10:17:29;;;;;;;10.32;3.13;;;8.40;99.90;;;;;;4852539;29;20053;-82
2021/12/18 10:20:17;;;;;;;9.43;2.33;;;8.40;99.90;;;;;;4861358;29;20057;-82
2021/12/18 10:22:47;;;;;;;19.27;2.67;;;8.40;99.90;;;;;;4863151;29;20049;-82
2021/12/18 10:25:15;;;;;;;7.80;2.47;;;8.40;99.90;;;;;;4862293;29;20076;-82
2021/12/18 10:27:43;;;;;;;10.63;2.92;;;8.50;99.90;;;;;;4856953;29;20060;-83
2021/12/18 10:30:16;;;;;;;7.40;2.42;;;8.40;99.90;;;;;;4846148;29;20057;-82
2021/12/18 10:32:59;;;;;;;10.30;3.22;;;8.50;99.90;;;;;;4846165;29;20053;-83
2021/12/18 10:35:50;;;;;;;12.43;3.72;;;8.50;99.90;;;;;;4846417;29;20058;-83
2021/12/18 10:38:34;;;;;;;10.23;2.08;;;8.50;99.90;;;;;;4846100;29;20064;-83
2021/12/18 10:41:00;;;;;;;6.18;2.15;;;8.50;99.90;;;;;;4846339;29;20050;-83
2021/12/18 10:43:46;;;;;;;13.50;2.70;;;8.50;99.90;;;;;;4862553;29;20435;-83
2021/12/18 10:46:19;;;;;;;11.52;2.55;;;8.50;99.90;;;;;;4848396;29;20048;-83
2021/12/18 10:49:13;;;;;;;9.57;2.25;;;8.60;99.90;;;;;;4859405;29;20085;-82
2021/12/18 10:51:40;;;;;;;11.88;2.13;;;8.60;99.90;;;;;;4863318;29;20047;-83
2021/12/18 10:54:22;;;;;;;11.05;2.40;;;8.60;99.90;;;;;;4845751;29;20056;-83
2021/12/18 10:56:51;;;;;;;10.27;2.47;;;8.60;99.90;;;;;;4848175;29;20409;-83
2021/12/18 10:59:23;;;;;;;11.90;2.13;;;8.50;99.90;;;;;;4854734;29;20494;-83
2021/12/18 11:01:51;;;;;;;18.23;2.72;;;8.50;99.90;;;;;;4845585;29;20054;-82
2021/12/18 11:04:24;;;;;;;11.90;2.72;;;8.50;99.90;;;;;;4845482;29;20061;-82
2021/12/18 11:06:50;;;;;;;13.18;3.15;;;8.50;99.90;;;;;;4845496;29;20065;-82
2021/12/18 11:09:17;;;;;;;8.93;2.60;;;8.60;99.90;;;;;;4845455;29;20121;-82
2021/12/18 11:14:25;;;;;;;10.15;2.75;;;8.60;99.90;;;;;;4845560;29;20063;-82
2021/12/18 11:16:53;;;;;;;11.20;3.50;;;8.70;99.90;;;;;;4865399;29;20037;-82
2021/12/18 11:19:27;;;;;;;14.68;2.53;;;8.70;99.90;;;;;;4868722;29;20042;-83
2021/12/18 11:21:56;;;;;;;9.38;2.13;;;8.70;99.90;;;;;;4861974;29;20108;-82
2021/12/18 11:24:40;;;;;;;13.30;2.97;;;8.70;99.90;;;;;;4845244;29;20509;-82
2021/12/18 11:27:18;;;;;;;13.68;3.10;;;8.70;99.90;;;;;;4847592;29;20524;-81
2021/12/18 11:29:55;;;;;;;7.82;2.78;;;8.70;99.90;;;;;;4876752;29;20438;-82
2021/12/18 11:32:28;;;;;;;9.13;2.60;;;8.70;99.90;;;;;;4863564;29;20123;-82
2021/12/18 11:34:55;;;;;;;13.13;3.42;;;8.70;99.90;;;;;;4863504;29;20105;-83
2021/12/18 11:37:23;;;;;;;11.85;2.70;;;8.70;99.90;;;;;;4863451;29;20057;-83
2021/12/18 11:39:51;;;;;;;14.35;2.55;;;8.70;99.90;;;;;;4880369;29;20109;-82
2021/12/18 11:42:17;;;;;;;15.15;2.90;;;8.70;99.90;;;;;;4880380;29;20052;-83
2021/12/18 11:44:53;;;;;;;16.65;3.65;;;8.60;99.90;;;;;;4880007;29;20434;-82
2021/12/18 11:47:30;;;;;;;18.95;4.38;;;8.70;99.90;;;;;;4854642;29;20390;-82
2021/12/18 11:50:16;;;;;;;11.80;2.92;;;8.70;99.90;;;;;;4845807;29;20061;-83
2021/12/18 11:53:05;;;;;;;14.70;3.40;;;8.70;99.90;;;;;;4852210;29;20133;-83
2021/12/18 11:55:32;;;;;;;10.52;3.13;;;8.70;99.90;;;;;;4860372;29;20064;-83
2021/12/18 11:58:00;;;;;;;26.55;3.45;;;8.70;99.90;;;;;;4861522;29;20045;-83
2021/12/18 12:00:52;;;;;;;20.83;3.72;;;8.60;99.90;;;;;;4872959;29;20120;-82
2021/12/18 12:03:26;;;;;;;19.90;4.68;;;8.60;99.90;;;;;;4875083;29;20116;-83
2021/12/18 12:05:54;;;;;;;13.18;3.70;;;8.60;99.90;;;;;;4879679;29;20053;-82
2021/12/18 12:08:30;;;;;;;9.77;2.90;;;8.60;99.90;;;;;;4862887;29;20409;-82
2021/12/18 12:11:23;;;;;;;15.73;5.45;;;8.60;99.90;;;;;;4863103;29;20067;-83
2021/12/18 12:14:03;;;;;;;12.25;3.75;;;8.60;99.90;;;;;;4862280;29;20116;-82
2021/12/18 12:16:45;;;;;;;18.08;4.32;;;8.60;99.90;;;;;;4878726;29;20109;-82
2021/12/18 12:19:12;;;;;;;13.63;3.67;;;8.60;99.90;;;;;;4879284;29;20053;-82
2021/12/18 12:21:47;;;;;;;15.60;4.22;;;8.60;99.90;;;;;;4879344;29;20108;-82
2021/12/18 12:24:16;;;;;;;16.98;4.18;;;8.60;99.90;;;;;;4862902;29;20052;-82
2021/12/18 12:26:42;;;;;;;12.27;3.30;;;8.60;99.90;;;;;;4863081;29;20405;-82
2021/12/18 12:29:09;;;;;;;19.45;3.35;;;8.60;99.90;;;;;;4862106;29;20060;-82
2021/12/18 12:31:36;;;;;;;14.07;2.50;;;8.60;99.90;;;;;;4879446;29;20442;-82
2021/12/18 12:34:21;;;;;;;14.65;3.75;;;8.60;99.90;;;;;;4879687;29;20045;-82
2021/12/18 12:36:47;;;;;;;8.25;2.63;;;8.60;99.90;;;;;;4879761;29;20059;-82
2021/12/18 12:39:14;;;;;;;17.25;2.83;;;8.60;99.90;;;;;;4862641;29;20052;-82
2021/12/18 12:41:52;;;;;;;15.40;2.72;;;8.50;99.90;;;;;;4862668;29;20489;-82
2021/12/18 12:44:28;;;;;;;11.68;3.38;;;8.50;99.90;;;;;;4862579;29;20057;-82
2021/12/18 12:47:27;;;;;;;14.68;2.50;;;8.50;99.90;;;;;;4880013;29;20045;-82
2021/12/18 12:50:13;;;;;;;18.70;3.78;;;8.60;99.90;;;;;;4866533;29;20045;-82
2021/12/18 12:52:57;;;;;;;12.85;2.83;;;8.60;99.90;;;;;;4853501;29;20193;-82
2021/12/18 12:55:25;;;;;;;12.63;3.03;;;8.60;99.90;;;;;;4882966;29;20497;-82
2021/12/18 12:58:01;;;;;;;12.35;3.33;;;8.60;99.90;;;;;;4866594;29;20091;-82
2021/12/18 13:00:27;;;;;;;10.85;3.63;;;8.50;99.90;;;;;;4866431;29;20583;-82
2021/12/18 13:03:05;;;;;;;9.30;2.50;;;8.50;99.90;;;;;;4866372;29;20097;-82
2021/12/18 13:05:31;;;;;;;9.57;2.70;;;8.50;99.90;;;;;;4866413;29;20052;-82
2021/12/18 13:08:01;;;;;;;14.48;3.00;;;8.40;99.90;;;;;;4866234;29;20548;-82
2021/12/18 13:10:38;;;;;;;15.05;3.55;;;8.40;99.90;;;;;;4866052;29;20049;-82
2021/12/18 13:13:07;;;;;;;12.20;2.75;;;8.40;99.90;;;;;;4866312;29;20052;-87
2021/12/18 13:15:51;;;;;;;11.45;2.67;;;8.40;99.90;;;;;;4866456;29;20057;-87
2021/12/18 13:18:35;;;;;;;19.25;3.58;;;8.50;99.90;;;;;;4866435;29;20476;-86
2021/12/18 13:21:04;;;;;;;10.07;2.83;;;8.50;99.90;;;;;;4865747;29;20045;-87
2021/12/18 13:23:46;;;;;;;12.95;3.28;;;8.50;99.90;;;;;;4865876;29;20108;-87
2021/12/18 13:26:34;;;;;;;11.80;3.38;;;8.50;99.90;;;;;;4882597;29;20053;-87
2021/12/18 13:29:27;;;;;;;10.77;2.60;;;8.40;99.90;;;;;;4881840;29;20071;-87
2021/12/18 13:31:58;;;;;;;11.52;3.47;;;8.40;99.90;;;;;;4865808;29;20053;-88
2021/12/18 13:34:32;;;;;;;16.38;3.50;;;8.40;99.90;;;;;;4865702;29;20052;-86
2021/12/18 13:37:04;;;;;;;11.75;3.65;;;8.50;99.90;;;;;;4865875;29;20075;-87
2021/12/18 13:39:41;;;;;;;12.50;2.42;;;8.40;99.90;;;;;;4866070;29;20420;-86
2021/12/18 13:42:18;;;;;;;12.05;2.80;;;8.40;99.90;;;;;;4865373;29;20064;-86
2021/12/18 13:44:48;;;;;;;14.32;3.78;;;8.50;99.90;;;;;;4865289;29;20497;-88